Roherstown, Pennsylvania
Current Conditions -  °F | °C
As of 7:53 AM on Friday 19 Dec 2014 (Local Time) from KLNS Reporting Station
Overcast Overcast  
Wind Chill: 26°   Ceiling: 3100
Heat Index: 34°   Visibility: 10mi
Dew Point: 24°   Wind: 10mph
Humidity: 67%   Direction: 290°WNW
Pressure: 30.08"   Gusts: NA
Location:  40.0115°N, 76.3553°W
Report Text: KLNS 191253Z 29009KT 10SM OVC031 01/M04 A3008 RMK AO2 SLP189 T00111044
Loading
Personal Weather Stations






























Interactive Weather Map New forecast layout! Learn more

10-Day Weather Forecast

Advertisements
Track Severe Weather on mobile